Pouch Cove, Canada
Current Conditions -  °F | °C
As of 2:00 PM on Monday 22 Dec 2014 (Local Time) from CYYT Reporting Station
Overcast Overcast  
Wind Chill: 16°   Ceiling: 1400
Heat Index: 27°   Visibility: 15mi
Dew Point: 23°   Wind: 13mph
Humidity: 86%   Direction: 40°NE
Pressure: 30.36"   Gusts: NA
Location:  47.76°N, 52.76°W
Report Text: CYYT 221700Z 04011KT 340V040 15SM OVC014 M03/M05 A3036 RMK SC8 SLP291
Loading
Personal Weather Stations






























Interactive Weather Map New forecast layout! Learn more

10-Day Weather Forecast

Advertisements
Track Severe Weather on mobile